DLH16PY LSZH-LIMC
Flight info
| Callsign | DLH16PY |
|---|---|
| Flight time | N/A |
| Altitude | 24000 |
| Route | VEBIT T53 GERSA DCT SOSON DCT DEGAD DCT BASGO Z424 RIXUV |
| Aircraft | A20N/M-SDE2E3FGHIRWXY/LB1 |
Departure
| Time | 2026-05-05 20:44 |
|---|---|
| Airport | Zürich Airport (LSZH) |
Arrival
| Time | N/A |
|---|---|
| Airport | Milan Malpensa International Airport (LIMC) |
| Time | Latitude | Longitude | Altitude | Speed | Heading |
|---|---|---|---|---|---|
| 2026-05-05 20:04 | 47.46174 | 8.55550 | 1398 ft | 0 kts | 187° |
| 2026-05-05 20:32 | 47.46179 | 8.55551 | 1397 ft | 2 kts | 193° |
| 2026-05-05 20:32 | 47.46194 | 8.55556 | 1397 ft | 0 kts | 193° |
| 2026-05-05 20:33 | 47.46207 | 8.55560 | 1397 ft | 2 kts | 192° |
| 2026-05-05 20:33 | 47.46222 | 8.55565 | 1397 ft | 2 kts | 193° |
| 2026-05-05 20:33 | 47.46236 | 8.55570 | 1397 ft | 2 kts | 193° |
| 2026-05-05 20:33 | 47.46244 | 8.55573 | 1397 ft | 0 kts | 195° |
| 2026-05-05 20:34 | 47.46249 | 8.55573 | 1397 ft | 0 kts | 135° |
| 2026-05-05 20:34 | 47.46251 | 8.55568 | 1397 ft | 0 kts | 93° |
| 2026-05-05 20:34 | 47.46251 | 8.55557 | 1397 ft | 0 kts | 95° |
| 2026-05-05 20:35 | 47.46251 | 8.55558 | 1397 ft | 0 kts | 95° |
| 2026-05-05 20:37 | 47.46251 | 8.55564 | 1397 ft | 1 kts | 95° |
| 2026-05-05 20:37 | 47.46248 | 8.55612 | 1398 ft | 5 kts | 95° |
| 2026-05-05 20:37 | 47.46243 | 8.55680 | 1399 ft | 7 kts | 97° |
| 2026-05-05 20:38 | 47.46235 | 8.55771 | 1400 ft | 10 kts | 96° |
| 2026-05-05 20:38 | 47.46229 | 8.55873 | 1401 ft | 9 kts | 95° |
| 2026-05-05 20:38 | 47.46220 | 8.55969 | 1403 ft | 9 kts | 117° |
| 2026-05-05 20:38 | 47.46168 | 8.56047 | 1404 ft | 10 kts | 138° |
| 2026-05-05 20:39 | 47.46108 | 8.56128 | 1406 ft | 13 kts | 136° |
| 2026-05-05 20:39 | 47.46066 | 8.56190 | 1408 ft | 0 kts | 135° |
| 2026-05-05 20:41 | 47.46050 | 8.56213 | 1408 ft | 7 kts | 136° |
| 2026-05-05 20:41 | 47.46048 | 8.56299 | 1409 ft | 9 kts | 56° |
| 2026-05-05 20:41 | 47.46102 | 8.56363 | 1409 ft | 10 kts | 31° |
| 2026-05-05 20:42 | 47.46175 | 8.56378 | 1408 ft | 9 kts | 333° |
| 2026-05-05 20:42 | 47.46189 | 8.56362 | 1408 ft | 0 kts | 319° |
| 2026-05-05 20:43 | 47.46219 | 8.56322 | 1407 ft | 31 kts | 317° |
| 2026-05-05 20:43 | 47.46588 | 8.55818 | 1396 ft | 109 kts | 318° |
| 2026-05-05 20:43 | 47.47312 | 8.54836 | 1395 ft | 168 kts | 317° |
| 2026-05-05 20:44 | 47.48244 | 8.53567 | 1655 ft | 195 kts | 317° |
| 2026-05-05 20:44 | 47.49238 | 8.52289 | 2524 ft | 185 kts | 322° |
| 2026-05-05 20:44 | 47.50264 | 8.51276 | 3372 ft | 181 kts | 329° |
| 2026-05-05 20:44 | 47.51403 | 8.50340 | 3895 ft | 194 kts | 328° |
| 2026-05-05 20:45 | 47.53032 | 8.46994 | 4814 ft | 220 kts | 287° |
| 2026-05-05 20:45 | 47.53473 | 8.44840 | 4972 ft | 222 kts | 278° |
| 2026-05-05 20:45 | 47.53309 | 8.42627 | 4911 ft | 215 kts | 247° |
| 2026-05-05 20:46 | 47.52634 | 8.40644 | 5193 ft | 223 kts | 239° |
| 2026-05-05 20:46 | 47.51608 | 8.38884 | 5857 ft | 234 kts | 213° |
| 2026-05-05 20:46 | 47.50080 | 8.38078 | 6648 ft | 242 kts | 193° |
| 2026-05-05 20:46 | 47.48407 | 8.37620 | 7374 ft | 251 kts | 194° |
| 2026-05-05 20:47 | 47.46629 | 8.37081 | 7936 ft | 268 kts | 194° |
| 2026-05-05 20:47 | 47.44803 | 8.36502 | 8716 ft | 275 kts | 194° |
| 2026-05-05 20:47 | 47.42922 | 8.35894 | 9611 ft | 278 kts | 194° |
| 2026-05-05 20:47 | 47.41043 | 8.35287 | 10431 ft | 283 kts | 193° |
| 2026-05-05 20:48 | 47.39016 | 8.35123 | 10908 ft | 302 kts | 175° |
| 2026-05-05 20:48 | 47.36963 | 8.36016 | 11326 ft | 323 kts | 157° |
| 2026-05-05 20:48 | 47.34890 | 8.37551 | 11770 ft | 340 kts | 155° |
| 2026-05-05 20:48 | 47.32797 | 8.39155 | 12449 ft | 346 kts | 155° |
| 2026-05-05 20:49 | 47.30647 | 8.40796 | 13260 ft | 349 kts | 155° |
| 2026-05-05 20:49 | 47.28506 | 8.42411 | 14023 ft | 352 kts | 155° |
| 2026-05-05 20:49 | 47.26309 | 8.44057 | 14777 ft | 355 kts | 155° |
| 2026-05-05 20:49 | 47.24121 | 8.45690 | 15491 ft | 359 kts | 155° |
| 2026-05-05 20:50 | 47.21876 | 8.47359 | 16198 ft | 362 kts | 155° |
| 2026-05-05 20:50 | 47.20379 | 8.48475 | 16659 ft | 365 kts | 156° |
| 2026-05-05 20:50 | 47.17305 | 8.50511 | 17557 ft | 367 kts | 163° |
| 2026-05-05 20:50 | 47.14835 | 8.51508 | 18229 ft | 367 kts | 171° |
| 2026-05-05 20:51 | 47.12331 | 8.52022 | 18872 ft | 369 kts | 176° |
| 2026-05-05 20:51 | 47.09753 | 8.52398 | 19494 ft | 372 kts | 177° |
| 2026-05-05 20:51 | 47.07193 | 8.52752 | 20121 ft | 375 kts | 177° |
| 2026-05-05 20:51 | 47.04578 | 8.53120 | 20760 ft | 378 kts | 177° |
| 2026-05-05 20:52 | 47.01986 | 8.53490 | 21382 ft | 380 kts | 177° |
| 2026-05-05 20:52 | 46.99336 | 8.53872 | 21989 ft | 383 kts | 177° |
| 2026-05-05 20:52 | 46.96701 | 8.54251 | 22570 ft | 386 kts | 177° |
| 2026-05-05 20:52 | 46.94015 | 8.54637 | 23166 ft | 389 kts | 177° |
| 2026-05-05 20:53 | 46.91308 | 8.55027 | 23693 ft | 392 kts | 177° |
| 2026-05-05 20:53 | 46.88596 | 8.55415 | 23924 ft | 393 kts | 177° |
| 2026-05-05 20:53 | 46.85890 | 8.55803 | 23923 ft | 392 kts | 177° |
| 2026-05-05 20:53 | 46.83149 | 8.56195 | 23936 ft | 392 kts | 177° |
| 2026-05-05 20:54 | 46.80374 | 8.56592 | 23937 ft | 391 kts | 177° |
| 2026-05-05 20:54 | 46.77685 | 8.56979 | 23942 ft | 390 kts | 177° |
| 2026-05-05 20:54 | 46.75007 | 8.57361 | 23947 ft | 391 kts | 177° |
| 2026-05-05 20:54 | 46.72289 | 8.57748 | 23946 ft | 391 kts | 177° |
| 2026-05-05 20:55 | 46.69579 | 8.58136 | 23944 ft | 390 kts | 178° |
| 2026-05-05 20:55 | 46.68988 | 8.58221 | 23943 ft | 390 kts | 178° |
| 2026-05-05 20:55 | 46.67764 | 8.58395 | 23943 ft | 390 kts | 177° |
| 2026-05-05 20:55 | 46.66583 | 8.58563 | 23945 ft | 390 kts | 178° |
| 2026-05-05 20:56 | 46.63880 | 8.58950 | 23958 ft | 388 kts | 178° |
| 2026-05-05 20:56 | 46.61222 | 8.59327 | 23965 ft | 388 kts | 178° |
| 2026-05-05 20:56 | 46.58520 | 8.59711 | 23969 ft | 388 kts | 178° |
| 2026-05-05 20:56 | 46.55856 | 8.60089 | 23967 ft | 388 kts | 178° |
| 2026-05-05 20:57 | 46.53155 | 8.60471 | 23972 ft | 388 kts | 178° |
| 2026-05-05 20:57 | 46.50499 | 8.60848 | 23976 ft | 387 kts | 178° |
| 2026-05-05 20:57 | 46.47807 | 8.61222 | 23983 ft | 386 kts | 179° |
| 2026-05-05 20:57 | 46.45171 | 8.61128 | 23988 ft | 382 kts | 190° |
| 2026-05-05 20:58 | 46.42582 | 8.60263 | 23995 ft | 380 kts | 200° |
| 2026-05-05 20:58 | 46.40170 | 8.58699 | 23984 ft | 379 kts | 211° |
| 2026-05-05 20:58 | 46.37934 | 8.56747 | 23987 ft | 378 kts | 212° |
| 2026-05-05 20:58 | 46.35688 | 8.54731 | 23985 ft | 378 kts | 213° |
| 2026-05-05 20:59 | 46.33479 | 8.52747 | 23985 ft | 377 kts | 212° |
| 2026-05-05 20:59 | 46.31235 | 8.50735 | 23988 ft | 378 kts | 212° |
| 2026-05-05 20:59 | 46.28942 | 8.48957 | 23970 ft | 378 kts | 203° |
| 2026-05-05 20:59 | 46.26399 | 8.47946 | 23977 ft | 373 kts | 191° |
| 2026-05-05 21:00 | 46.23864 | 8.47757 | 23987 ft | 367 kts | 180° |
| 2026-05-05 21:00 | 46.21308 | 8.48068 | 23995 ft | 366 kts | 179° |
| 2026-05-05 21:00 | 46.18794 | 8.48424 | 23998 ft | 366 kts | 178° |
| 2026-05-05 21:00 | 46.16243 | 8.48791 | 24001 ft | 367 kts | 178° |
| 2026-05-05 21:01 | 46.13735 | 8.49173 | 24004 ft | 367 kts | 176° |
| 2026-05-05 21:01 | 46.11208 | 8.49828 | 24005 ft | 368 kts | 172° |
| 2026-05-05 21:01 | 46.08750 | 8.50801 | 24010 ft | 372 kts | 167° |
| 2026-05-05 21:01 | 46.06296 | 8.52077 | 24010 ft | 374 kts | 162° |
| 2026-05-05 21:02 | 46.04101 | 8.54075 | 23984 ft | 387 kts | 141° |
| 2026-05-05 21:02 | 46.02513 | 8.57289 | 24000 ft | 401 kts | 121° |
| 2026-05-05 21:02 | 46.01663 | 8.61108 | 24014 ft | 411 kts | 109° |
| 2026-05-05 21:02 | 46.01028 | 8.65143 | 24010 ft | 415 kts | 109° |
| 2026-05-05 21:03 | 46.00382 | 8.69184 | 24005 ft | 421 kts | 109° |
| 2026-05-05 21:03 | 45.99706 | 8.73302 | 24000 ft | 423 kts | 109° |
| 2026-05-05 21:03 | 45.99013 | 8.77432 | 24003 ft | 424 kts | 109° |
| 2026-05-05 21:03 | 45.98322 | 8.81499 | 23993 ft | 423 kts | 110° |
| 2026-05-05 21:04 | 45.97613 | 8.85627 | 23997 ft | 424 kts | 110° |
| 2026-05-05 21:04 | 45.96910 | 8.89686 | 23992 ft | 423 kts | 110° |
| 2026-05-05 21:04 | 45.96197 | 8.93798 | 23985 ft | 423 kts | 110° |
| 2026-05-05 21:04 | 45.95490 | 8.97854 | 23995 ft | 423 kts | 110° |
| 2026-05-05 21:05 | 45.94771 | 9.01966 | 23994 ft | 423 kts | 110° |
| 2026-05-05 21:05 | 45.94060 | 9.06014 | 23982 ft | 423 kts | 110° |
| 2026-05-05 21:05 | 45.93337 | 9.10124 | 23990 ft | 423 kts | 110° |
| 2026-05-05 21:05 | 45.92625 | 9.14168 | 23985 ft | 423 kts | 110° |
| 2026-05-05 21:06 | 45.91900 | 9.18272 | 23978 ft | 423 kts | 110° |
| 2026-05-05 21:06 | 45.91179 | 9.22358 | 23818 ft | 418 kts | 110° |
| 2026-05-05 21:06 | 45.90705 | 9.25032 | 23491 ft | 415 kts | 110° |
| 2026-05-05 21:06 | 45.90234 | 9.27691 | 23183 ft | 413 kts | 110° |
| 2026-05-05 21:07 | 45.89041 | 9.34300 | 22994 ft | 413 kts | 110° |
| 2026-05-05 21:07 | 45.88339 | 9.38190 | 23008 ft | 397 kts | 110° |
| 2026-05-05 21:07 | 45.87649 | 9.41962 | 22985 ft | 380 kts | 110° |
| 2026-05-05 21:07 | 45.87002 | 9.45524 | 22993 ft | 366 kts | 110° |
| 2026-05-05 21:08 | 45.86372 | 9.49025 | 22999 ft | 356 kts | 110° |
| 2026-05-05 21:08 | 45.85867 | 9.52462 | 22993 ft | 357 kts | 106° |
| 2026-05-05 21:08 | 45.85464 | 9.55995 | 22996 ft | 359 kts | 100° |
| 2026-05-05 21:08 | 45.85283 | 9.59537 | 22992 ft | 358 kts | 104° |
| 2026-05-05 21:09 | 45.84563 | 9.62857 | 22984 ft | 339 kts | 127° |
| 2026-05-05 21:09 | 45.83051 | 9.65282 | 23000 ft | 319 kts | 155° |
| 2026-05-05 21:09 | 45.81057 | 9.66292 | 22838 ft | 300 kts | 181° |
| 2026-05-05 21:09 | 45.79013 | 9.66011 | 22953 ft | 293 kts | 203° |
| 2026-05-05 21:10 | 45.77391 | 9.64392 | 22982 ft | 291 kts | 233° |
| 2026-05-05 21:10 | 45.76682 | 9.61653 | 22992 ft | 304 kts | 264° |
| 2026-05-05 21:10 | 45.77196 | 9.58707 | 22988 ft | 324 kts | 295° |
| 2026-05-05 21:10 | 45.78855 | 9.56385 | 22988 ft | 347 kts | 327° |
| 2026-05-05 21:11 | 45.81144 | 9.55195 | 22982 ft | 358 kts | 338° |
| 2026-05-05 21:11 | 45.83530 | 9.54116 | 22996 ft | 359 kts | 338° |
| 2026-05-05 21:11 | 45.85780 | 9.52691 | 22983 ft | 343 kts | 314° |
| 2026-05-05 21:11 | 45.87159 | 9.50156 | 23000 ft | 318 kts | 283° |
| 2026-05-05 21:12 | 45.87363 | 9.47148 | 23005 ft | 297 kts | 251° |
| 2026-05-05 21:12 | 45.86367 | 9.44711 | 22993 ft | 287 kts | 219° |
| 2026-05-05 21:12 | 45.84531 | 9.43591 | 22979 ft | 295 kts | 190° |
| 2026-05-05 21:12 | 45.82471 | 9.43727 | 22965 ft | 304 kts | 178° |
| 2026-05-05 21:13 | 45.80376 | 9.44422 | 23033 ft | 313 kts | 166° |
| 2026-05-05 21:13 | 45.78397 | 9.45704 | 23104 ft | 321 kts | 153° |
| 2026-05-05 21:13 | 45.76736 | 9.47953 | 22967 ft | 332 kts | 136° |
| 2026-05-05 21:13 | 45.75312 | 9.50520 | 23004 ft | 334 kts | 135° |
| 2026-05-05 21:14 | 45.73975 | 9.53288 | 23001 ft | 340 kts | 128° |
| 2026-05-05 21:14 | 45.72796 | 9.56173 | 22987 ft | 341 kts | 127° |
| 2026-05-05 21:14 | 45.71617 | 9.59123 | 22995 ft | 342 kts | 127° |
| 2026-05-05 21:14 | 45.70477 | 9.62126 | 22989 ft | 346 kts | 120° |
| 2026-05-05 21:15 | 45.69932 | 9.65492 | 22976 ft | 360 kts | 97° |
| 2026-05-05 21:15 | 45.70268 | 9.69093 | 22981 ft | 371 kts | 75° |
| 2026-05-05 21:15 | 45.71537 | 9.72259 | 22978 ft | 376 kts | 44° |
| 2026-05-05 21:15 | 45.73802 | 9.73991 | 22970 ft | 367 kts | 4° |
| 2026-05-05 21:16 | 45.76234 | 9.73666 | 22979 ft | 349 kts | 329° |
| 2026-05-05 21:16 | 45.78069 | 9.71620 | 23007 ft | 328 kts | 300° |
| 2026-05-05 21:16 | 45.79234 | 9.68895 | 23182 ft | 322 kts | 287° |
| 2026-05-05 21:16 | 45.80249 | 9.65982 | 22978 ft | 331 kts | 296° |
| 2026-05-05 21:17 | 45.81577 | 9.63320 | 22980 ft | 333 kts | 298° |
| 2026-05-05 21:17 | 45.82917 | 9.60602 | 22999 ft | 331 kts | 297° |
| 2026-05-05 21:17 | 45.84197 | 9.57856 | 23023 ft | 331 kts | 296° |
| 2026-05-05 21:17 | 45.85422 | 9.55104 | 23010 ft | 330 kts | 292° |
| 2026-05-05 21:18 | 45.86160 | 9.52094 | 23000 ft | 312 kts | 270° |
| 2026-05-05 21:18 | 45.86032 | 9.49097 | 23002 ft | 301 kts | 249° |
| 2026-05-05 21:18 | 45.85107 | 9.46456 | 22994 ft | 294 kts | 229° |
| 2026-05-05 21:18 | 45.83581 | 9.44581 | 22993 ft | 293 kts | 210° |
| 2026-05-05 21:19 | 45.81626 | 9.43666 | 22986 ft | 299 kts | 189° |
| 2026-05-05 21:19 | 45.79557 | 9.43895 | 22984 ft | 308 kts | 169° |
| 2026-05-05 21:19 | 45.77618 | 9.45344 | 22991 ft | 323 kts | 147° |
| 2026-05-05 21:19 | 45.76132 | 9.47774 | 22976 ft | 332 kts | 134° |
| 2026-05-05 21:20 | 45.74741 | 9.50455 | 22985 ft | 335 kts | 134° |
| 2026-05-05 21:20 | 45.73365 | 9.53111 | 22984 ft | 335 kts | 134° |
| 2026-05-05 21:20 | 45.71955 | 9.55777 | 22974 ft | 334 kts | 135° |
| 2026-05-05 21:20 | 45.70670 | 9.58532 | 22965 ft | 343 kts | 121° |
| 2026-05-05 21:21 | 45.70182 | 9.61948 | 22965 ft | 361 kts | 92° |
| 2026-05-05 21:21 | 45.70789 | 9.65435 | 22964 ft | 373 kts | 65° |
| 2026-05-05 21:21 | 45.72416 | 9.68353 | 22979 ft | 378 kts | 38° |
| 2026-05-05 21:21 | 45.74706 | 9.70044 | 22979 ft | 374 kts | 10° |
| 2026-05-05 21:22 | 45.77256 | 9.70219 | 22990 ft | 360 kts | 342° |
| 2026-05-05 21:22 | 45.79499 | 9.68863 | 22984 ft | 342 kts | 314° |
| 2026-05-05 21:22 | 45.80971 | 9.66396 | 22992 ft | 324 kts | 290° |
| 2026-05-05 21:22 | 45.81935 | 9.63463 | 22993 ft | 325 kts | 289° |
| 2026-05-05 21:23 | 45.82977 | 9.60591 | 22997 ft | 330 kts | 293° |
| 2026-05-05 21:23 | 45.84195 | 9.57771 | 23011 ft | 333 kts | 296° |
| 2026-05-05 21:23 | 45.85485 | 9.55051 | 23000 ft | 333 kts | 296° |
| 2026-05-05 21:23 | 45.86444 | 9.52119 | 22971 ft | 315 kts | 273° |
| 2026-05-05 21:24 | 45.86346 | 9.49127 | 22990 ft | 300 kts | 249° |
| 2026-05-05 21:24 | 45.85422 | 9.46486 | 22984 ft | 294 kts | 230° |
| 2026-05-05 21:24 | 45.83940 | 9.44545 | 22981 ft | 293 kts | 212° |
| 2026-05-05 21:24 | 45.82032 | 9.43468 | 22972 ft | 297 kts | 193° |
| 2026-05-05 21:25 | 45.79946 | 9.43475 | 22974 ft | 305 kts | 173° |
| 2026-05-05 21:25 | 45.77968 | 9.44638 | 22982 ft | 319 kts | 152° |
| 2026-05-05 21:25 | 45.76356 | 9.46930 | 22993 ft | 334 kts | 135° |
| 2026-05-05 21:25 | 45.74978 | 9.49612 | 22989 ft | 336 kts | 134° |
| 2026-05-05 21:26 | 45.73611 | 9.52307 | 22935 ft | 333 kts | 134° |
| 2026-05-05 21:26 | 45.72269 | 9.54963 | 22558 ft | 331 kts | 133° |
| 2026-05-05 21:26 | 45.70952 | 9.57647 | 22117 ft | 333 kts | 126° |
| 2026-05-05 21:26 | 45.70245 | 9.60877 | 21995 ft | 350 kts | 98° |
| 2026-05-05 21:27 | 45.70611 | 9.64335 | 21981 ft | 364 kts | 71° |
| 2026-05-05 21:27 | 45.72018 | 9.67348 | 21983 ft | 370 kts | 43° |
| 2026-05-05 21:27 | 45.74186 | 9.69248 | 21986 ft | 367 kts | 15° |
| 2026-05-05 21:27 | 45.76649 | 9.69654 | 21987 ft | 356 kts | 347° |
| 2026-05-05 21:28 | 45.78916 | 9.68524 | 21985 ft | 339 kts | 318° |
| 2026-05-05 21:28 | 45.80503 | 9.66169 | 21994 ft | 322 kts | 295° |
| 2026-05-05 21:28 | 45.81635 | 9.63425 | 21987 ft | 323 kts | 293° |
| 2026-05-05 21:28 | 45.82806 | 9.60663 | 21994 ft | 326 kts | 296° |
| 2026-05-05 21:29 | 45.84055 | 9.57965 | 22006 ft | 328 kts | 298° |
| 2026-05-05 21:29 | 45.85368 | 9.55274 | 22003 ft | 328 kts | 297° |
| 2026-05-05 21:29 | 45.86371 | 9.52454 | 21974 ft | 313 kts | 276° |
| 2026-05-05 21:29 | 45.86366 | 9.49465 | 21998 ft | 297 kts | 252° |
| 2026-05-05 21:30 | 45.85541 | 9.46784 | 21991 ft | 291 kts | 233° |
| 2026-05-05 21:30 | 45.84129 | 9.44746 | 21990 ft | 290 kts | 214° |
| 2026-05-05 21:30 | 45.82298 | 9.43561 | 21983 ft | 293 kts | 196° |
| 2026-05-05 21:30 | 45.80259 | 9.43405 | 21979 ft | 302 kts | 176° |
| 2026-05-05 21:31 | 45.78258 | 9.44389 | 21986 ft | 314 kts | 155° |
| 2026-05-05 21:31 | 45.76594 | 9.46485 | 21994 ft | 328 kts | 135° |
| 2026-05-05 21:31 | 45.75233 | 9.49113 | 21995 ft | 331 kts | 133° |
| 2026-05-05 21:31 | 45.73894 | 9.51758 | 21817 ft | 327 kts | 133° |
| 2026-05-05 21:32 | 45.72570 | 9.54372 | 21371 ft | 326 kts | 133° |
| 2026-05-05 21:32 | 45.71247 | 9.56993 | 21040 ft | 326 kts | 130° |
| 2026-05-05 21:32 | 45.70326 | 9.59998 | 20982 ft | 343 kts | 105° |
| 2026-05-05 21:32 | 45.70406 | 9.63424 | 20981 ft | 356 kts | 78° |
| 2026-05-05 21:33 | 45.71552 | 9.66581 | 20986 ft | 363 kts | 49° |
| 2026-05-05 21:33 | 45.73556 | 9.68751 | 20989 ft | 361 kts | 21° |
| 2026-05-05 21:33 | 45.75942 | 9.69460 | 20978 ft | 351 kts | 352° |
| 2026-05-05 21:33 | 45.78249 | 9.68617 | 20993 ft | 336 kts | 324° |
| 2026-05-05 21:34 | 45.79982 | 9.66561 | 20994 ft | 321 kts | 301° |
| 2026-05-05 21:34 | 45.81239 | 9.63927 | 20995 ft | 320 kts | 296° |
| 2026-05-05 21:34 | 45.82447 | 9.61280 | 21001 ft | 321 kts | 297° |
| 2026-05-05 21:34 | 45.83716 | 9.58617 | 21015 ft | 322 kts | 298° |
| 2026-05-05 21:35 | 45.84996 | 9.56015 | 21013 ft | 323 kts | 299° |
| 2026-05-05 21:35 | 45.86172 | 9.53285 | 20992 ft | 313 kts | 283° |
| 2026-05-05 21:35 | 45.86434 | 9.50352 | 21006 ft | 296 kts | 258° |
| 2026-05-05 21:35 | 45.85846 | 9.47572 | 20999 ft | 289 kts | 239° |
| 2026-05-05 21:36 | 45.84634 | 9.45343 | 20996 ft | 287 kts | 220° |
| 2026-05-05 21:36 | 45.82919 | 9.43849 | 20992 ft | 289 kts | 202° |
| 2026-05-05 21:36 | 45.80947 | 9.43338 | 20991 ft | 295 kts | 183° |
| 2026-05-05 21:36 | 45.78935 | 9.43920 | 20991 ft | 305 kts | 163° |
| 2026-05-05 21:37 | 45.77125 | 9.45628 | 21000 ft | 319 kts | 140° |
| 2026-05-05 21:37 | 45.75737 | 9.48128 | 21001 ft | 326 kts | 133° |
| 2026-05-05 21:37 | 45.74388 | 9.50775 | 21002 ft | 327 kts | 133° |
| 2026-05-05 21:37 | 45.73055 | 9.53407 | 20999 ft | 327 kts | 133° |
| 2026-05-05 21:38 | 45.71723 | 9.56033 | 20993 ft | 328 kts | 133° |
| 2026-05-05 21:38 | 45.70549 | 9.58815 | 20972 ft | 338 kts | 116° |
| 2026-05-05 21:38 | 45.70242 | 9.62165 | 20980 ft | 351 kts | 88° |
| 2026-05-05 21:38 | 45.71009 | 9.65501 | 20984 ft | 360 kts | 60° |
| 2026-05-05 21:39 | 45.72749 | 9.68099 | 20993 ft | 363 kts | 31° |
| 2026-05-05 21:39 | 45.75069 | 9.69369 | 20994 ft | 357 kts | 3° |
| 2026-05-05 21:39 | 45.77455 | 9.69089 | 20999 ft | 343 kts | 334° |
| 2026-05-05 21:39 | 45.79444 | 9.67396 | 21002 ft | 326 kts | 308° |
| 2026-05-05 21:40 | 45.80799 | 9.64894 | 21001 ft | 319 kts | 296° |
| 2026-05-05 21:40 | 45.82005 | 9.62238 | 20994 ft | 320 kts | 297° |
| 2026-05-05 21:40 | 45.83259 | 9.59563 | 21007 ft | 323 kts | 298° |
| 2026-05-05 21:40 | 45.84533 | 9.56952 | 21008 ft | 323 kts | 298° |
| 2026-05-05 21:41 | 45.85817 | 9.54294 | 21004 ft | 320 kts | 293° |
| 2026-05-05 21:41 | 45.86458 | 9.51397 | 20992 ft | 300 kts | 266° |
| 2026-05-05 21:41 | 45.86135 | 9.48499 | 20999 ft | 291 kts | 245° |
| 2026-05-05 21:41 | 45.85125 | 9.46057 | 20999 ft | 287 kts | 227° |
| 2026-05-05 21:42 | 45.83571 | 9.44276 | 20996 ft | 288 kts | 209° |
| 2026-05-05 21:42 | 45.81684 | 9.43401 | 20988 ft | 292 kts | 190° |
| 2026-05-05 21:42 | 45.79630 | 9.43589 | 20985 ft | 301 kts | 169° |
| 2026-05-05 21:42 | 45.77707 | 9.44910 | 20994 ft | 314 kts | 148° |
| 2026-05-05 21:43 | 45.76212 | 9.47209 | 20998 ft | 325 kts | 134° |
| 2026-05-05 21:43 | 45.74864 | 9.49844 | 20999 ft | 327 kts | 133° |
| 2026-05-05 21:43 | 45.73531 | 9.52471 | 20990 ft | 327 kts | 133° |
| 2026-05-05 21:43 | 45.72213 | 9.55073 | 20988 ft | 327 kts | 133° |
| 2026-05-05 21:44 | 45.70902 | 9.57765 | 20980 ft | 332 kts | 126° |
| 2026-05-05 21:44 | 45.70226 | 9.60919 | 20970 ft | 346 kts | 98° |
| 2026-05-05 21:44 | 45.70615 | 9.64366 | 20977 ft | 358 kts | 70° |
| 2026-05-05 21:44 | 45.72022 | 9.67272 | 20982 ft | 362 kts | 41° |
| 2026-05-05 21:45 | 45.74200 | 9.69069 | 20987 ft | 360 kts | 13° |
| 2026-05-05 21:45 | 45.76612 | 9.69340 | 20985 ft | 348 kts | 344° |
| 2026-05-05 21:45 | 45.78791 | 9.68121 | 20935 ft | 328 kts | 317° |
| 2026-05-05 21:45 | 45.80333 | 9.65901 | 20556 ft | 311 kts | 298° |
| 2026-05-05 21:46 | 45.81526 | 9.63303 | 20117 ft | 311 kts | 296° |
| 2026-05-05 21:46 | 45.82708 | 9.60728 | 20016 ft | 314 kts | 297° |
| 2026-05-05 21:46 | 45.83954 | 9.58127 | 20012 ft | 316 kts | 298° |
| 2026-05-05 21:46 | 45.85230 | 9.55542 | 20005 ft | 317 kts | 299° |
| 2026-05-05 21:47 | 45.86270 | 9.52847 | 19981 ft | 305 kts | 279° |
| 2026-05-05 21:47 | 45.86379 | 9.49927 | 19995 ft | 291 kts | 256° |
| 2026-05-05 21:47 | 45.85704 | 9.47227 | 19944 ft | 283 kts | 237° |
| 2026-05-05 21:47 | 45.84466 | 9.45116 | 19586 ft | 280 kts | 219° |
| 2026-05-05 21:48 | 45.82758 | 9.43750 | 19087 ft | 283 kts | 200° |
| 2026-05-05 21:48 | 45.80820 | 9.43328 | 18634 ft | 289 kts | 182° |
| 2026-05-05 21:48 | 45.78844 | 9.43962 | 18203 ft | 297 kts | 161° |
| 2026-05-05 21:48 | 45.77106 | 9.45635 | 17783 ft | 308 kts | 140° |
| 2026-05-05 21:49 | 45.75774 | 9.48029 | 17400 ft | 310 kts | 132° |
| 2026-05-05 21:49 | 45.74519 | 9.50497 | 17065 ft | 308 kts | 131° |
| 2026-05-05 21:49 | 45.73258 | 9.52999 | 16993 ft | 309 kts | 131° |
| 2026-05-05 21:49 | 45.71999 | 9.55486 | 16984 ft | 310 kts | 131° |
| 2026-05-05 21:50 | 45.70787 | 9.58063 | 16971 ft | 315 kts | 121° |
| 2026-05-05 21:50 | 45.70237 | 9.61095 | 16970 ft | 325 kts | 95° |
| 2026-05-05 21:50 | 45.70618 | 9.64302 | 16974 ft | 332 kts | 69° |
| 2026-05-05 21:50 | 45.71910 | 9.67060 | 16978 ft | 335 kts | 43° |
| 2026-05-05 21:51 | 45.73845 | 9.68792 | 16981 ft | 332 kts | 16° |
| 2026-05-05 21:51 | 45.76095 | 9.69242 | 16974 ft | 324 kts | 350° |
| 2026-05-05 21:51 | 45.78210 | 9.68392 | 16985 ft | 313 kts | 326° |
| 2026-05-05 21:51 | 45.79871 | 9.66487 | 16984 ft | 302 kts | 304° |
| 2026-05-05 21:52 | 45.82273 | 9.61565 | 16981 ft | 302 kts | 299° |
| 2026-05-05 21:52 | 45.83458 | 9.59117 | 16990 ft | 302 kts | 300° |
| 2026-05-05 21:52 | 45.84670 | 9.56664 | 16990 ft | 303 kts | 300° |
| 2026-05-05 21:53 | 45.85863 | 9.54158 | 16988 ft | 300 kts | 292° |
| 2026-05-05 21:53 | 45.86397 | 9.51389 | 16986 ft | 287 kts | 267° |
| 2026-05-05 21:53 | 45.86116 | 9.48603 | 16980 ft | 280 kts | 248° |
| 2026-05-05 21:53 | 45.85189 | 9.46207 | 16987 ft | 278 kts | 229° |
| 2026-05-05 21:54 | 45.83727 | 9.44403 | 16980 ft | 278 kts | 211° |
| 2026-05-05 21:54 | 45.81926 | 9.43442 | 16977 ft | 282 kts | 192° |
| 2026-05-05 21:54 | 45.79948 | 9.43460 | 16970 ft | 288 kts | 172° |
| 2026-05-05 21:54 | 45.78055 | 9.44529 | 16979 ft | 298 kts | 152° |
| 2026-05-05 21:55 | 45.76524 | 9.46568 | 16993 ft | 308 kts | 133° |
| 2026-05-05 21:55 | 45.75255 | 9.49021 | 16994 ft | 310 kts | 131° |
| 2026-05-05 21:55 | 45.73988 | 9.51540 | 16993 ft | 311 kts | 131° |
| 2026-05-05 21:55 | 45.72732 | 9.54032 | 16990 ft | 311 kts | 131° |
| 2026-05-05 21:56 | 45.71456 | 9.56557 | 16983 ft | 311 kts | 131° |